createdAt,value
2016-10-09T00:03:04.823Z,8.63
2016-10-09T00:08:01.215Z,8.66
2016-10-09T00:12:58.605Z,8.61
2016-10-09T00:17:54.743Z,8.58
2016-10-09T00:22:51.225Z,8.58
2016-10-09T00:27:47.676Z,8.58
2016-10-09T00:32:44.060Z,8.48
2016-10-09T00:37:41.808Z,8.36
2016-10-09T00:42:37.932Z,8.18
2016-10-09T00:47:34.411Z,8.15
2016-10-09T00:52:30.861Z,8.16
2016-10-09T00:57:27.247Z,7.98
2016-10-09T01:02:24.314Z,7.97
2016-10-09T01:07:21.354Z,7.93
2016-10-09T01:12:17.587Z,7.94
2016-10-09T01:17:14.124Z,7.95
2016-10-09T01:22:10.451Z,7.95
2016-10-09T01:27:07.034Z,7.91
2016-10-09T01:32:03.479Z,7.91
2016-10-09T01:36:59.741Z,7.93
2016-10-09T01:41:56.934Z,7.88
2016-10-09T01:46:53.379Z,7.94
2016-10-09T01:51:51.098Z,7.91
2016-10-09T01:56:47.174Z,7.88
2016-10-09T02:01:43.679Z,7.85
2016-10-09T02:06:40.090Z,7.88
2016-10-09T02:11:36.449Z,7.79
2016-10-09T02:16:32.882Z,7.87
2016-10-09T02:21:29.233Z,7.79
2016-10-09T02:26:25.644Z,7.69
2016-10-09T02:31:22.040Z,7.72
2016-10-09T02:36:18.455Z,7.66
2016-10-09T02:41:14.795Z,7.61
2016-10-09T02:46:11.329Z,7.58
2016-10-09T02:51:08.174Z,7.43
2016-10-09T02:56:04.565Z,7.40
2016-10-09T03:01:01.116Z,7.17
2016-10-09T03:05:57.913Z,7.14
2016-10-09T03:10:54.635Z,7.06
2016-10-09T03:15:51.189Z,7.11
2016-10-09T03:20:47.560Z,6.97
2016-10-09T03:25:43.539Z,6.99
2016-10-09T03:30:40.288Z,6.75
2016-10-09T03:35:36.610Z,6.72
2016-10-09T03:40:32.681Z,6.60
2016-10-09T03:45:29.091Z,6.70
2016-10-09T03:50:25.637Z,6.66
2016-10-09T03:55:22.454Z,6.66
2016-10-09T04:00:18.905Z,6.48
2016-10-09T04:05:15.353Z,6.62
2016-10-09T04:10:12.332Z,6.41
2016-10-09T04:15:09.085Z,6.42
2016-10-09T04:20:05.690Z,6.38
2016-10-09T04:25:02.167Z,6.28
2016-10-09T04:29:58.563Z,6.26
2016-10-09T04:34:55.120Z,6.27
2016-10-09T04:39:52.058Z,6.12
2016-10-09T04:44:48.560Z,5.98
2016-10-09T04:49:45.937Z,5.98
2016-10-09T04:54:42.104Z,5.90
2016-10-09T04:59:39.559Z,5.84
2016-10-09T05:04:35.632Z,5.86
2016-10-09T05:09:32.340Z,5.93
2016-10-09T05:14:28.885Z,6.01
2016-10-09T05:19:25.281Z,5.87
2016-10-09T05:24:21.696Z,5.86
2016-10-09T05:29:18.139Z,5.80
2016-10-09T05:34:14.480Z,5.71
2016-10-09T05:39:10.693Z,5.66
2016-10-09T05:44:07.447Z,5.73
2016-10-09T05:49:03.579Z,5.66
2016-10-09T05:53:59.837Z,5.72
2016-10-09T05:58:57.035Z,5.68
2016-10-09T06:03:53.450Z,5.64
2016-10-09T06:08:49.982Z,5.71
2016-10-09T06:13:46.551Z,5.79
2016-10-09T06:18:42.936Z,5.80
2016-10-09T06:23:39.506Z,5.90
2016-10-09T06:28:36.993Z,5.97
2016-10-09T06:33:33.290Z,5.98
2016-10-09T06:38:29.909Z,5.84
2016-10-09T06:43:26.570Z,5.90
2016-10-09T06:48:23.268Z,5.99
2016-10-09T06:53:19.802Z,6.08
2016-10-09T06:58:16.644Z,6.30
2016-10-09T07:03:13.093Z,6.38
2016-10-09T07:08:09.690Z,6.52
2016-10-09T07:13:06.312Z,6.77
2016-10-09T07:18:02.622Z,6.74
2016-10-09T07:22:59.564Z,6.81
2016-10-09T07:27:56.357Z,6.95
2016-10-09T07:32:52.880Z,6.96
2016-10-09T07:37:49.358Z,7.11
2016-10-09T07:42:46.041Z,7.42
2016-10-09T07:47:42.458Z,7.54
2016-10-09T07:52:39.549Z,7.75
2016-10-09T07:57:36.832Z,8.01
2016-10-09T08:02:33.440Z,8.15
2016-10-09T08:07:30.013Z,8.53
2016-10-09T08:12:26.473Z,9.19
2016-10-09T08:17:24.062Z,9.36
2016-10-09T08:22:20.702Z,9.58
2016-10-09T08:27:17.747Z,9.82
2016-10-09T08:32:15.874Z,10.05
2016-10-09T08:37:12.341Z,10.26
2016-10-09T08:42:09.386Z,10.51
2016-10-09T08:47:06.015Z,10.54
2016-10-09T08:52:02.592Z,10.51
2016-10-09T08:56:59.056Z,10.49
2016-10-09T09:01:55.546Z,10.57
2016-10-09T09:06:52.477Z,10.61
2016-10-09T09:11:49.144Z,11.12
2016-10-09T09:16:46.060Z,11.35
2016-10-09T09:21:42.650Z,10.75
2016-10-09T09:26:38.620Z,10.37
2016-10-09T09:31:34.955Z,10.23
2016-10-09T09:36:31.252Z,10.30
2016-10-09T09:41:27.622Z,10.38
2016-10-09T09:46:23.948Z,10.46
2016-10-09T09:51:20.667Z,10.56
2016-10-09T09:56:17.562Z,10.84
2016-10-09T10:01:14.413Z,11.30
2016-10-09T10:06:12.292Z,11.48
2016-10-09T10:11:09.052Z,11.66
2016-10-09T10:16:06.090Z,11.48
2016-10-09T10:21:02.559Z,10.97
2016-10-09T10:25:58.788Z,10.82
2016-10-09T10:30:55.154Z,10.79
2016-10-09T10:35:52.117Z,10.94
2016-10-09T10:40:48.661Z,11.32
2016-10-09T10:45:44.883Z,11.25
2016-10-09T10:50:41.765Z,12.24
2016-10-09T10:55:39.478Z,13.30
2016-10-09T11:00:36.876Z,13.04
2016-10-09T11:05:35.678Z,14.33
2016-10-09T11:10:32.900Z,14.77
2016-10-09T11:15:31.229Z,15.14
2016-10-09T11:20:27.535Z,15.52
2016-10-09T11:25:25.648Z,17.34
2016-10-09T11:30:22.346Z,16.61
2016-10-09T11:35:18.139Z,14.48
2016-10-09T11:40:14.146Z,14.33
2016-10-09T11:45:10.420Z,14.12
2016-10-09T11:50:06.400Z,13.90
2016-10-09T11:55:02.354Z,13.54
2016-10-09T11:59:58.749Z,13.27
2016-10-09T12:04:54.960Z,13.33
2016-10-09T12:09:51.694Z,13.33
2016-10-09T12:14:48.160Z,13.20
2016-10-09T12:19:44.781Z,13.12
2016-10-09T12:24:41.329Z,13.01
2016-10-09T12:29:37.705Z,12.76
2016-10-09T12:34:34.306Z,13.00
2016-10-09T12:39:31.267Z,13.11
2016-10-09T12:44:28.341Z,13.31
2016-10-09T12:49:25.188Z,13.38
2016-10-09T12:54:21.736Z,13.31
2016-10-09T12:59:18.293Z,13.50
2016-10-09T13:04:14.383Z,13.23
2016-10-09T13:09:12.466Z,13.08
2016-10-09T13:14:08.730Z,12.94
2016-10-09T13:19:08.313Z,12.72
2016-10-09T13:24:04.111Z,12.91
2016-10-09T13:29:00.418Z,13.16
2016-10-09T13:33:57.384Z,13.22
2016-10-09T13:38:54.042Z,13.70
2016-10-09T13:43:50.554Z,13.83
2016-10-09T13:48:47.666Z,13.92
2016-10-09T13:53:44.473Z,13.77
2016-10-09T13:58:40.905Z,13.50
2016-10-09T14:03:37.589Z,13.39
2016-10-09T14:08:34.344Z,13.35
2016-10-09T14:13:30.829Z,13.39
2016-10-09T14:18:27.334Z,13.15
2016-10-09T14:23:24.398Z,13.09
2016-10-09T14:28:21.879Z,13.00
2016-10-09T14:33:17.988Z,13.01
2016-10-09T14:38:15.177Z,13.19
2016-10-09T14:43:11.741Z,12.94
2016-10-09T14:48:08.260Z,12.87
2016-10-09T14:53:04.647Z,12.82
2016-10-09T14:58:01.448Z,12.80
2016-10-09T15:02:57.911Z,12.86
2016-10-09T15:07:54.456Z,12.64
2016-10-09T15:12:50.858Z,12.55
2016-10-09T15:17:47.284Z,12.54
2016-10-09T15:22:43.878Z,12.39
2016-10-09T15:27:40.324Z,12.31
2016-10-09T15:32:36.811Z,12.29
2016-10-09T15:37:33.257Z,12.15
2016-10-09T15:42:29.825Z,12.12
2016-10-09T15:47:26.185Z,12.17
2016-10-09T15:52:22.915Z,11.94
2016-10-09T15:57:19.263Z,11.84
2016-10-09T16:02:15.810Z,11.78
2016-10-09T16:07:12.226Z,11.62
2016-10-09T16:12:08.677Z,11.73
2016-10-09T16:17:06.368Z,11.63
2016-10-09T16:22:02.911Z,11.59
2016-10-09T16:26:59.226Z,11.55
2016-10-09T16:31:55.716Z,11.52
2016-10-09T16:36:52.225Z,11.51
2016-10-09T16:41:48.746Z,11.59
2016-10-09T16:46:45.252Z,11.40
2016-10-09T16:51:42.816Z,11.48
2016-10-09T16:56:39.188Z,11.33
2016-10-09T17:01:36.014Z,11.22
2016-10-09T17:06:32.510Z,11.25
2016-10-09T17:11:29.634Z,11.08
2016-10-09T17:16:26.022Z,11.00
2016-10-09T17:21:22.453Z,11.04
2016-10-09T17:26:19.011Z,11.02
2016-10-09T17:31:15.990Z,11.05
2016-10-09T17:36:12.566Z,10.99
2016-10-09T17:41:09.020Z,10.99
2016-10-09T17:46:05.725Z,11.05
2016-10-09T17:51:02.202Z,10.86
2016-10-09T17:55:58.576Z,10.89
2016-10-09T18:00:55.446Z,10.92
2016-10-09T18:05:51.660Z,11.05
2016-10-09T18:10:48.272Z,11.04
2016-10-09T18:15:44.620Z,11.00
2016-10-09T18:20:41.156Z,11.05
2016-10-09T18:25:37.365Z,11.00
2016-10-09T18:30:33.835Z,10.97
2016-10-09T18:35:30.103Z,11.07
2016-10-09T18:40:26.872Z,11.07
2016-10-09T18:45:24.070Z,10.97
2016-10-09T18:50:21.000Z,10.99
2016-10-09T18:55:18.277Z,10.99
2016-10-09T19:00:15.389Z,11.07
2016-10-09T19:05:11.413Z,11.07
2016-10-09T19:10:10.577Z,11.00
2016-10-09T19:15:06.858Z,10.92
2016-10-09T19:20:04.251Z,10.87
2016-10-09T19:25:03.148Z,10.76
2016-10-09T19:29:59.242Z,10.71
2016-10-09T19:34:55.702Z,10.57
2016-10-09T19:39:54.578Z,10.51
2016-10-09T19:44:50.654Z,10.34
2016-10-09T19:49:47.103Z,10.30
2016-10-09T19:54:43.488Z,10.28
2016-10-09T19:59:39.772Z,10.10
2016-10-09T20:04:36.220Z,10.04
2016-10-09T20:09:32.642Z,9.95
2016-10-09T20:14:29.073Z,9.98
2016-10-09T20:19:26.714Z,10.12
2016-10-09T20:24:23.165Z,9.98
2016-10-09T20:29:19.758Z,9.92
2016-10-09T20:34:16.340Z,9.79
2016-10-09T20:39:12.727Z,9.68
2016-10-09T20:44:09.249Z,9.55
2016-10-09T20:49:05.765Z,9.36
2016-10-09T20:54:02.059Z,9.14
2016-10-09T20:58:58.470Z,9.00
2016-10-09T21:03:55.338Z,8.91
2016-10-09T21:08:52.958Z,8.70
2016-10-09T21:13:49.764Z,8.71
2016-10-09T21:18:46.375Z,8.58
2016-10-09T21:23:42.770Z,8.44
2016-10-09T21:28:39.195Z,8.34
2016-10-09T21:33:35.591Z,8.49
2016-10-09T21:38:32.038Z,8.67
2016-10-09T21:43:28.864Z,8.97
2016-10-09T21:48:25.491Z,9.22
2016-10-09T21:53:22.655Z,9.32
2016-10-09T21:58:20.224Z,9.56
2016-10-09T22:03:16.675Z,9.47
2016-10-09T22:08:13.141Z,9.48
2016-10-09T22:13:09.472Z,9.46
2016-10-09T22:18:06.072Z,9.44
2016-10-09T22:23:02.899Z,9.32
2016-10-09T22:27:59.548Z,9.29
2016-10-09T22:32:55.894Z,9.26
2016-10-09T22:37:52.271Z,9.26
2016-10-09T22:42:49.014Z,9.22
2016-10-09T22:47:45.141Z,9.25
2016-10-09T22:52:41.486Z,9.16
2016-10-09T22:57:38.026Z,9.25
2016-10-09T23:02:34.157Z,9.19
2016-10-09T23:07:30.711Z,9.21
2016-10-09T23:12:27.493Z,9.34
2016-10-09T23:17:24.006Z,9.32
2016-10-09T23:22:20.724Z,9.29
2016-10-09T23:27:17.859Z,9.25
2016-10-09T23:32:14.259Z,9.26
2016-10-09T23:37:11.133Z,9.36
2016-10-09T23:42:07.628Z,9.40
2016-10-09T23:47:04.311Z,9.47
2016-10-09T23:52:01.265Z,9.47
2016-10-09T23:56:57.958Z,9.43
